Bancroft, NE (68004)

00:53 CDT le 20 septembre 2014 (GMT -0500)
6 miles south of Craig | Change Station
CLOSE
Current Station
Stations météorologiques personnelles
Location: Craig, NE
Altitude: 1290 ft
Stations météo à proximité

Alt. 1290 ft 41.70 °N, 96.36 °W | Updated 3 seconds ago

Couvert
Couvert
72.9 ° F
Paraît 72 ° F
N
0.0
Vent Variable Vent de SO
Gusts 13.0 mph

Aujourd'hui
Haut(e) -- | Bas -- ° F
--% Risque de précip.
Hier
Haut(e) -- | Bas -- ° F
Precip. -- pouce
7:11 AM 7:26 PM
Lune descendante, 14% visible
Pression 29.80 pouce
Visibilité 10.0 Miles terrestres
Nuages Nuageux 6500 ft
Couvert 8000 ft
indice de chaleur 72 ° F
Point de rosée 68 ° F
Humidité 86%
Précipitations 0.00 pouce
Profondeur de la couche neigeuse Non disponible.
UV 0 sur 12
Pollen 5.70 sur 12
Qualité de l'air Non disponible.
Flu Activity Non disponible.
METAR KLCG 200535Z AUTO 13005KT 10SM -RA BKN065 OVC080 20/19 A2980 RMK AO2 LTG DSNT NE THRU SE P0003 T02000185

More Conditions Fewer Conditions

Pression 29.80 pouce
Visibilité 10.0 Miles terrestres
Nuages Nuageux 6500 ft
Couvert 8000 ft
indice de chaleur 72 ° F
Point de rosée 68 ° F
Humidité 86%
Précipitations 0.00 pouce
Profondeur de la couche neigeuse Non disponible.
UV 0 sur 12
Pollen 5.70 sur 12
Qualité de l'air Non disponible.
Flu Activity Non disponible.
METAR KLCG 200535Z AUTO 13005KT 10SM -RA BKN065 OVC080 20/19 A2980 RMK AO2 LTG DSNT NE THRU SE P0003 T02000185

More Conditions Fewer Conditions

10-Day Weather Forecast

Almanac

Astronomie

Sep. 20, 2014 Lever Coucher
Temps réel 07:11 CDT 19:26 CDT
Crépuscule civil 06:43 CDT 19:54 CDT
Crépuscule nautique 06:10 CDT 20:27 CDT
Crépuscule astronomique 05:37 CDT 21:00 CDT
Lune 03:49 CDT 17:33 CDT
Durée de lumière visible 13h 11m
Longueur du jour
12h 15m
Tomorrow will be 2m 48s shorter.
Lune descendante, 14% of the Moon is Illuminated
Aujourd'hui
Lune descendante
Sep 24
Nouveau
Oct 1
Premier quartier
Oct 8
Pleine lune
Oct 15
Dernier quartier

Extrêmes aujourd'hui

State Highs State Lows

Community

WunderPhotos

Upload Photos

1,754,777 Photos téléchargées !

WunderBlogs® & News

Nearby

Épaisseur de neige

Station Depth Altitude
Pas de nouvelles chutes de neige

Activité sismique

Ville Distance Mag. Time & Date
No recent earthquake activity has been reported nearby.
Minimum magnitude displayed is 2.5.

Températures des eaux côtières

Lieu Température
Aucun rapport de station

Stations météo à proximité